createdAt,value
2022-09-25T00:02:59.548Z,13.07
2022-09-25T00:06:05.230Z,19.87
2022-09-25T00:09:10.182Z,13.23
2022-09-25T00:12:13.407Z,17.27
2022-09-25T00:15:16.501Z,16.07
2022-09-25T00:18:42.345Z,14.27
2022-09-25T00:21:44.750Z,15.07
2022-09-25T00:24:47.689Z,14.50
2022-09-25T00:27:54.656Z,15.90
2022-09-25T00:30:57.449Z,17.17
2022-09-25T00:34:03.592Z,18.03
2022-09-25T00:37:07.432Z,15.43
2022-09-25T00:40:11.284Z,20.60
2022-09-25T00:43:15.908Z,17.83
2022-09-25T00:46:23.832Z,19.43
2022-09-25T00:49:28.304Z,17.13
2022-09-25T00:52:32.884Z,19.33
2022-09-25T00:55:39.851Z,19.20
2022-09-25T00:58:43.331Z,14.13
2022-09-25T01:01:46.877Z,16.93
2022-09-25T01:04:52.591Z,16.40
2022-09-25T01:07:58.433Z,16.23
2022-09-25T01:11:02.106Z,14.83
2022-09-25T01:14:07.168Z,22.33
2022-09-25T01:17:19.294Z,25.40
2022-09-25T01:20:39.562Z,25.17
2022-09-25T01:24:21.174Z,21.63
2022-09-25T01:27:35.362Z,23.30
2022-09-25T01:30:43.773Z,20.37
2022-09-25T01:33:51.723Z,24.30
2022-09-25T01:36:59.905Z,18.00
2022-09-25T01:40:09.180Z,20.87
2022-09-25T01:43:16.801Z,22.57
2022-09-25T01:46:23.183Z,17.00
2022-09-25T01:49:31.803Z,24.87
2022-09-25T01:52:40.097Z,27.83
2022-09-25T01:55:49.097Z,16.77
2022-09-25T01:58:56.588Z,22.60
2022-09-25T02:02:04.480Z,12.90
2022-09-25T02:05:13.413Z,16.53
2022-09-25T02:08:22.162Z,16.93
2022-09-25T02:11:30.929Z,18.93
2022-09-25T02:14:36.944Z,24.00
2022-09-25T02:18:03.705Z,18.53
2022-09-25T02:21:15.375Z,18.77
2022-09-25T02:24:21.933Z,21.80
2022-09-25T02:27:27.873Z,18.03
2022-09-25T02:30:31.041Z,23.67
2022-09-25T02:33:35.949Z,19.70
2022-09-25T02:36:38.723Z,21.10
2022-09-25T02:39:43.404Z,16.23
2022-09-25T02:42:51.466Z,16.57
2022-09-25T02:46:05.490Z,14.03
2022-09-25T02:49:23.551Z,14.70
2022-09-25T02:52:35.279Z,13.90
2022-09-25T02:55:41.735Z,17.07
2022-09-25T02:58:51.179Z,15.17
2022-09-25T03:01:55.195Z,15.00
2022-09-25T03:05:01.927Z,16.50
2022-09-25T03:08:23.152Z,14.77
2022-09-25T03:11:27.784Z,19.33
2022-09-25T03:14:30.730Z,18.70
2022-09-25T03:17:33.790Z,17.17
2022-09-25T03:20:38.556Z,18.53
2022-09-25T03:23:41.650Z,18.60
2022-09-25T03:26:44.991Z,17.77
2022-09-25T03:29:48.672Z,17.63
2022-09-25T03:32:51.701Z,18.30
2022-09-25T03:36:08.158Z,19.30
2022-09-25T03:39:11.230Z,19.63
2022-09-25T03:42:14.842Z,19.60
2022-09-25T03:45:17.969Z,19.97
2022-09-25T03:48:21.411Z,21.73
2022-09-25T03:51:27.340Z,21.27
2022-09-25T03:54:30.349Z,18.97
2022-09-25T03:57:33.793Z,27.47
2022-09-25T04:00:36.806Z,27.50
2022-09-25T04:03:40.357Z,30.17
2022-09-25T04:06:44.751Z,30.07
2022-09-25T04:09:47.671Z,34.53
2022-09-25T04:12:55.514Z,31.83
2022-09-25T04:15:59.520Z,36.37
2022-09-25T04:19:02.479Z,37.63
2022-09-25T04:22:06.835Z,33.97
2022-09-25T04:25:10.610Z,37.10
2022-09-25T04:28:13.883Z,34.67
2022-09-25T04:31:16.879Z,32.80
2022-09-25T04:34:18.834Z,36.33
2022-09-25T04:37:26.512Z,39.80
2022-09-25T04:40:29.743Z,42.07
2022-09-25T04:43:34.164Z,43.50
2022-09-25T04:46:36.894Z,38.73
2022-09-25T04:49:39.638Z,42.87
2022-09-25T04:52:43.952Z,39.67
2022-09-25T04:55:48.096Z,36.00
2022-09-25T04:58:50.802Z,39.60
2022-09-25T05:01:54.215Z,43.10
2022-09-25T05:04:56.994Z,36.57
2022-09-25T05:08:02.924Z,43.00
2022-09-25T05:11:05.813Z,40.53
2022-09-25T05:14:09.389Z,37.87
2022-09-25T05:17:12.592Z,36.90
2022-09-25T05:20:15.684Z,38.47
2022-09-25T05:23:19.799Z,41.40
2022-09-25T05:26:22.752Z,36.60
2022-09-25T05:29:25.571Z,37.90
2022-09-25T05:32:28.647Z,35.93
2022-09-25T05:35:33.165Z,32.40
2022-09-25T05:38:39.541Z,39.77
2022-09-25T05:41:42.234Z,33.80
2022-09-25T05:44:44.863Z,33.00
2022-09-25T05:47:48.163Z,30.80
2022-09-25T05:50:52.738Z,31.57
2022-09-25T05:53:56.808Z,28.00
2022-09-25T05:56:59.769Z,32.20
2022-09-25T06:00:03.146Z,33.47
2022-09-25T06:03:06.555Z,33.73
2022-09-25T06:06:09.771Z,37.13
2022-09-25T06:09:13.738Z,34.80
2022-09-25T06:12:16.679Z,36.93
2022-09-25T06:15:19.358Z,34.40
2022-09-25T06:18:24.259Z,37.77
2022-09-25T06:21:27.270Z,34.90
2022-09-25T06:24:31.617Z,32.70
2022-09-25T06:27:34.849Z,38.87
2022-09-25T06:30:38.700Z,37.27
2022-09-25T06:33:42.266Z,38.40
2022-09-25T06:36:45.187Z,35.50
2022-09-25T06:39:49.195Z,36.20
2022-09-25T06:42:56.955Z,34.43
2022-09-25T06:46:04.003Z,30.33
2022-09-25T06:49:07.234Z,32.53
2022-09-25T06:52:10.280Z,32.63
2022-09-25T06:55:14.883Z,32.27
2022-09-25T06:58:20.682Z,31.30
2022-09-25T07:01:23.356Z,33.43
2022-09-25T07:04:26.425Z,50.33
2022-09-25T07:07:30.076Z,38.23
2022-09-25T07:10:34.017Z,27.13
2022-09-25T07:13:37.900Z,29.07
2022-09-25T07:16:40.561Z,30.23
2022-09-25T07:19:43.621Z,42.63
2022-09-25T07:22:46.206Z,32.60
2022-09-25T07:25:50.929Z,34.47
2022-09-25T07:28:56.169Z,30.90
2022-09-25T07:32:00.281Z,28.00
2022-09-25T07:35:03.153Z,30.20
2022-09-25T07:38:06.275Z,27.97
2022-09-25T07:41:13.454Z,33.13
2022-09-25T07:44:37.937Z,28.17
2022-09-25T07:47:39.583Z,69.80
2022-09-25T07:50:42.556Z,53.20
2022-09-25T07:53:46.171Z,24.40
2022-09-25T07:56:50.414Z,21.37
2022-09-25T07:59:53.457Z,18.90
2022-09-25T08:02:58.003Z,21.53
2022-09-25T08:06:02.652Z,21.80
2022-09-25T08:09:10.108Z,22.23
2022-09-25T08:12:15.555Z,19.87
2022-09-25T08:15:18.539Z,20.07
2022-09-25T08:18:21.700Z,16.53
2022-09-25T08:21:24.387Z,16.13
2022-09-25T08:24:27.466Z,18.20
2022-09-25T08:27:32.012Z,17.27
2022-09-25T08:30:35.161Z,19.20
2022-09-25T08:33:38.146Z,15.20
2022-09-25T08:36:40.822Z,13.93
2022-09-25T08:39:43.970Z,14.67
2022-09-25T08:42:51.653Z,22.67
2022-09-25T08:46:13.975Z,16.50
2022-09-25T08:49:20.500Z,17.00
2022-09-25T08:52:23.417Z,15.93
2022-09-25T08:55:50.053Z,15.80
2022-09-25T08:59:02.524Z,15.07
2022-09-25T09:02:13.854Z,11.47
2022-09-25T09:05:21.569Z,9.87
2022-09-25T09:08:29.131Z,7.97
2022-09-25T09:11:37.580Z,7.77
2022-09-25T09:14:46.113Z,7.20
2022-09-25T09:17:48.848Z,7.40
2022-09-25T09:20:54.714Z,6.33
2022-09-25T09:24:06.214Z,5.97
2022-09-25T09:27:23.349Z,8.23
2022-09-25T09:30:36.690Z,5.70
2022-09-25T09:33:52.371Z,6.50
2022-09-25T09:37:02.197Z,6.63
2022-09-25T09:40:19.974Z,5.03
2022-09-25T09:43:37.010Z,6.70
2022-09-25T09:46:50.005Z,6.50
2022-09-25T09:49:59.004Z,31.30
2022-09-25T09:53:04.743Z,6.67
2022-09-25T09:56:14.850Z,4.60
2022-09-25T09:59:22.936Z,6.03
2022-09-25T10:02:34.502Z,5.00
2022-09-25T10:05:40.664Z,5.73
2022-09-25T10:08:43.797Z,7.00
2022-09-25T10:11:50.429Z,6.23
2022-09-25T10:14:53.479Z,6.63
2022-09-25T10:18:00.763Z,6.40
2022-09-25T10:21:11.077Z,4.07
2022-09-25T10:24:49.781Z,4.50
2022-09-25T10:27:52.865Z,5.27
2022-09-25T10:30:56.958Z,6.47
2022-09-25T10:34:04.313Z,4.13
2022-09-25T10:37:20.211Z,3.20
2022-09-25T10:40:28.155Z,3.33
2022-09-25T10:43:30.936Z,4.33
2022-09-25T10:46:53.400Z,4.00
2022-09-25T10:50:13.540Z,4.47
2022-09-25T10:53:30.997Z,4.73
2022-09-25T10:56:39.101Z,4.27
2022-09-25T10:59:48.879Z,3.80
2022-09-25T11:02:56.698Z,8.00
2022-09-25T11:06:05.632Z,4.97
2022-09-25T11:09:14.406Z,6.70
2022-09-25T11:12:23.751Z,7.37
2022-09-25T11:15:28.720Z,8.13
2022-09-25T11:18:40.939Z,10.83
2022-09-25T11:21:59.911Z,8.30
2022-09-25T11:25:12.565Z,11.50
2022-09-25T11:28:28.908Z,8.67
2022-09-25T11:31:38.027Z,7.80
2022-09-25T11:35:06.030Z,7.03
2022-09-25T11:38:43.702Z,8.47
2022-09-25T11:41:49.431Z,7.57
2022-09-25T11:44:59.350Z,6.80
2022-09-25T11:48:07.866Z,7.47
2022-09-25T11:51:19.874Z,8.17
2022-09-25T11:54:36.717Z,11.83
2022-09-25T11:57:49.620Z,10.47
2022-09-25T12:01:01.266Z,7.17
2022-09-25T12:04:30.225Z,8.87
2022-09-25T12:07:47.578Z,7.30
2022-09-25T12:11:01.814Z,6.53
2022-09-25T12:14:14.093Z,6.60
2022-09-25T12:17:24.037Z,6.77
2022-09-25T12:20:33.815Z,9.80
2022-09-25T12:23:44.855Z,6.73
2022-09-25T12:26:57.337Z,7.97
2022-09-25T12:30:12.235Z,7.73
2022-09-25T12:33:32.634Z,6.87
2022-09-25T12:36:41.570Z,9.53
2022-09-25T12:39:51.707Z,9.17
2022-09-25T12:43:03.169Z,8.17
2022-09-25T12:46:12.284Z,7.37
2022-09-25T12:49:21.424Z,8.23
2022-09-25T12:52:29.701Z,7.77
2022-09-25T12:55:39.209Z,7.50
2022-09-25T12:58:57.664Z,8.33
2022-09-25T13:02:06.200Z,8.57
2022-09-25T13:05:18.144Z,8.10
2022-09-25T13:08:28.763Z,7.23
2022-09-25T13:11:39.635Z,7.60
2022-09-25T13:14:52.459Z,7.63
2022-09-25T13:17:55.968Z,7.67
2022-09-25T13:21:00.908Z,8.23
2022-09-25T13:24:09.410Z,8.27
2022-09-25T13:27:19.122Z,7.93
2022-09-25T13:30:26.532Z,11.83
2022-09-25T13:33:30.105Z,8.93
2022-09-25T13:36:40.632Z,9.77
2022-09-25T13:40:05.083Z,11.37
2022-09-25T13:43:20.963Z,10.37
2022-09-25T13:46:25.804Z,11.97
2022-09-25T13:49:35.746Z,10.63
2022-09-25T13:53:16.086Z,10.23
2022-09-25T13:56:28.093Z,10.10
2022-09-25T13:59:39.393Z,12.87
2022-09-25T14:02:47.640Z,11.30
2022-09-25T14:05:50.747Z,12.37
2022-09-25T14:08:56.836Z,8.03
2022-09-25T14:12:08.458Z,6.47
2022-09-25T14:15:21.925Z,12.00
2022-09-25T14:18:37.373Z,12.97
2022-09-25T14:21:40.373Z,11.60
2022-09-25T14:24:45.597Z,12.83
2022-09-25T14:27:52.760Z,14.07
2022-09-25T14:31:08.212Z,10.20
2022-09-25T14:34:53.271Z,13.30
2022-09-25T14:38:20.488Z,12.20
2022-09-25T14:41:44.306Z,11.83
2022-09-25T14:45:14.397Z,13.07
2022-09-25T14:48:20.218Z,13.90
2022-09-25T14:51:27.680Z,11.50
2022-09-25T14:54:36.494Z,14.27
2022-09-25T14:57:39.841Z,11.13
2022-09-25T15:00:47.724Z,9.90
2022-09-25T15:03:51.215Z,12.83
2022-09-25T15:07:02.651Z,11.67
2022-09-25T15:10:28.621Z,14.37
2022-09-25T15:13:34.462Z,13.90
2022-09-25T15:16:56.989Z,17.97
2022-09-25T15:20:02.497Z,14.07
2022-09-25T15:23:10.386Z,33.63
2022-09-25T15:26:18.649Z,13.20
2022-09-25T15:29:23.839Z,11.27
2022-09-25T15:32:28.547Z,20.20
2022-09-25T15:35:32.631Z,11.70
2022-09-25T15:38:39.895Z,15.83
2022-09-25T15:41:44.501Z,10.10
2022-09-25T15:44:47.815Z,13.67
2022-09-25T15:47:54.972Z,11.97
2022-09-25T15:51:00.160Z,10.57
2022-09-25T15:54:06.435Z,17.07
2022-09-25T15:57:13.382Z,26.50
2022-09-25T16:00:39.624Z,14.20
2022-09-25T16:04:06.961Z,12.73
2022-09-25T16:07:28.306Z,12.43
2022-09-25T16:10:34.466Z,9.33
2022-09-25T16:13:40.514Z,13.23
2022-09-25T16:16:49.846Z,8.67
2022-09-25T16:20:05.172Z,12.73
2022-09-25T16:23:22.933Z,9.27
2022-09-25T16:26:31.322Z,8.77
2022-09-25T16:29:39.117Z,9.53
2022-09-25T16:32:47.201Z,14.17
2022-09-25T16:36:10.613Z,7.63
2022-09-25T16:39:23.085Z,7.37
2022-09-25T16:42:39.547Z,10.30
2022-09-25T16:45:59.008Z,9.53
2022-09-25T16:49:04.806Z,8.53
2022-09-25T16:52:08.921Z,10.77
2022-09-25T16:55:21.423Z,9.70
2022-09-25T16:58:25.624Z,11.00
2022-09-25T17:01:29.488Z,7.40
2022-09-25T17:04:35.972Z,10.80
2022-09-25T17:07:38.668Z,9.00
2022-09-25T17:10:41.919Z,9.67
2022-09-25T17:13:46.743Z,12.30
2022-09-25T17:16:49.538Z,9.23
2022-09-25T17:19:52.253Z,10.93
2022-09-25T17:22:55.874Z,12.60
2022-09-25T17:26:03.708Z,10.60
2022-09-25T17:29:07.964Z,10.03
2022-09-25T17:32:14.090Z,18.60
2022-09-25T17:35:29.766Z,8.60
2022-09-25T17:38:34.042Z,12.83
2022-09-25T17:41:38.373Z,15.00
2022-09-25T17:44:43.797Z,13.53
2022-09-25T17:47:46.622Z,12.27
2022-09-25T17:50:49.295Z,11.33
2022-09-25T17:53:53.935Z,21.50
2022-09-25T17:56:57.039Z,18.53
2022-09-25T18:00:01.671Z,53.20
2022-09-25T18:03:04.549Z,26.87
2022-09-25T18:06:07.426Z,10.97
2022-09-25T18:09:10.211Z,14.73
2022-09-25T18:12:12.943Z,6.87
2022-09-25T18:15:18.411Z,15.37
2022-09-25T18:18:21.594Z,8.40
2022-09-25T18:21:41.724Z,8.07
2022-09-25T18:24:45.032Z,10.83
2022-09-25T18:27:48.099Z,11.60
2022-09-25T18:30:52.548Z,8.43
2022-09-25T18:33:56.097Z,8.17
2022-09-25T18:36:58.898Z,8.37
2022-09-25T18:40:02.219Z,8.73
2022-09-25T18:43:04.903Z,8.03
2022-09-25T18:46:09.530Z,8.57
2022-09-25T18:49:12.610Z,11.50
2022-09-25T18:52:15.782Z,14.17
2022-09-25T18:55:18.607Z,7.30
2022-09-25T18:58:21.578Z,6.93
2022-09-25T19:01:26.071Z,14.17
2022-09-25T19:04:28.945Z,10.87
2022-09-25T19:07:32.050Z,12.03
2022-09-25T19:10:35.259Z,9.80
2022-09-25T19:13:38.235Z,7.67
2022-09-25T19:16:42.633Z,14.07
2022-09-25T19:19:45.759Z,6.77
2022-09-25T19:22:48.632Z,9.00
2022-09-25T19:25:55.793Z,7.63
2022-09-25T19:28:58.483Z,10.23
2022-09-25T19:32:03.932Z,12.27
2022-09-25T19:35:07.303Z,8.80
2022-09-25T19:38:12.760Z,10.10
2022-09-25T19:41:17.888Z,10.47
2022-09-25T19:44:21.220Z,12.33
2022-09-25T19:47:25.235Z,10.07
2022-09-25T19:50:28.145Z,8.23
2022-09-25T19:53:31.361Z,8.73
2022-09-25T19:56:34.382Z,8.07
2022-09-25T19:59:37.394Z,11.97
2022-09-25T20:02:46.105Z,10.27
2022-09-25T20:05:49.652Z,14.40
2022-09-25T20:08:57.453Z,8.77
2022-09-25T20:12:00.578Z,16.53
2022-09-25T20:15:03.626Z,8.80
2022-09-25T20:18:07.868Z,8.13
2022-09-25T20:21:11.170Z,10.43
2022-09-25T20:24:14.077Z,14.03
2022-09-25T20:27:21.000Z,7.97
2022-09-25T20:30:25.711Z,11.33
2022-09-25T20:33:34.694Z,11.13
2022-09-25T20:36:39.147Z,9.73
2022-09-25T20:39:41.891Z,9.70
2022-09-25T20:42:44.634Z,9.17
2022-09-25T20:45:57.101Z,7.80
2022-09-25T20:49:02.085Z,13.27
2022-09-25T20:52:05.155Z,12.93
2022-09-25T20:55:08.487Z,8.77
2022-09-25T20:58:11.648Z,8.40
2022-09-25T21:01:17.510Z,7.80
2022-09-25T21:04:21.634Z,13.87
2022-09-25T21:07:26.392Z,9.23
2022-09-25T21:10:29.590Z,10.80
2022-09-25T21:13:34.010Z,12.53
2022-09-25T21:16:37.037Z,9.93
2022-09-25T21:19:41.529Z,10.53
2022-09-25T21:22:44.263Z,15.60
2022-09-25T21:25:46.977Z,9.77
2022-09-25T21:28:52.532Z,8.80
2022-09-25T21:31:55.701Z,10.17
2022-09-25T21:35:00.069Z,9.90
2022-09-25T21:38:03.975Z,14.90
2022-09-25T21:41:09.352Z,10.27
2022-09-25T21:44:14.848Z,13.17
2022-09-25T21:47:17.995Z,7.73
2022-09-25T21:50:22.048Z,14.37
2022-09-25T21:53:26.122Z,11.67
2022-09-25T21:56:31.500Z,12.90
2022-09-25T21:59:34.536Z,12.93
2022-09-25T22:02:38.500Z,12.00
2022-09-25T22:05:42.615Z,12.00
2022-09-25T22:08:47.740Z,14.10
2022-09-25T22:11:51.484Z,14.63
2022-09-25T22:14:54.440Z,13.67
2022-09-25T22:17:57.107Z,14.80
2022-09-25T22:21:01.775Z,19.63
2022-09-25T22:24:04.976Z,14.47
2022-09-25T22:27:07.754Z,13.03
2022-09-25T22:30:11.851Z,10.57
2022-09-25T22:33:14.846Z,14.13
2022-09-25T22:36:19.217Z,14.40
2022-09-25T22:39:22.330Z,15.80
2022-09-25T22:42:25.251Z,15.37
2022-09-25T22:45:28.188Z,13.90
2022-09-25T22:48:31.557Z,14.93
2022-09-25T22:51:36.062Z,11.90
2022-09-25T22:54:39.010Z,14.67
2022-09-25T22:57:41.714Z,16.97
2022-09-25T23:00:45.107Z,11.43
2022-09-25T23:03:48.234Z,13.77
2022-09-25T23:06:52.904Z,14.10
2022-09-25T23:09:55.797Z,14.23
2022-09-25T23:12:58.838Z,18.80
2022-09-25T23:16:05.713Z,21.53
2022-09-25T23:19:08.441Z,15.17
2022-09-25T23:22:12.563Z,18.80
2022-09-25T23:25:15.796Z,14.20
2022-09-25T23:28:18.607Z,16.00
2022-09-25T23:31:22.372Z,14.60
2022-09-25T23:34:25.634Z,15.77
2022-09-25T23:37:30.511Z,13.27
2022-09-25T23:40:33.319Z,14.93
2022-09-25T23:43:35.991Z,18.40
2022-09-25T23:46:40.882Z,15.70
2022-09-25T23:49:44.444Z,19.43
2022-09-25T23:52:48.489Z,11.17
2022-09-25T23:55:51.660Z,16.57
2022-09-25T23:58:56.170Z,15.50
